Time;durP1;ratioP1;P1;durP2;ratioP2;P2;SDS_P1;SDS_P2;PMS_P1;PMS_P2;Temp;Humidity;BMP_temperature;BMP_pressure;BME280_temperature;BME280_humidity;BME280_pressure;Samples;Min_cycle;Max_cycle;Signal;HPM_P1;HPM_P2
2022/09/27 00:01:36;;;;;;;26.80;23.90;;;21.40;63.30;;;;;;4466860;58;21060;-30
2022/09/27 00:06:37;;;;;;;25.48;22.73;;;21.40;63.30;;;;;;4439433;59;21092;-28
2022/09/27 00:11:41;;;;;;;25.90;23.10;;;21.40;63.30;;;;;;4445644;58;21048;-28
2022/09/27 00:16:43;;;;;;;26.62;23.73;;;21.40;63.30;;;;;;4442189;59;21133;-31
2022/09/27 00:21:45;;;;;;;26.50;23.40;;;21.40;63.30;;;;;;4449763;59;21105;-27
2022/09/27 00:26:47;;;;;;;26.62;23.70;;;21.40;63.30;;;;;;4443994;59;21530;-28
2022/09/27 00:31:48;;;;;;;27.27;24.37;;;21.40;63.30;;;;;;4449483;59;21064;-33
2022/09/27 00:36:50;;;;;;;24.85;22.20;;;21.40;63.30;;;;;;4458768;58;21052;-27
2022/09/27 00:41:51;;;;;;;26.20;23.40;;;21.40;63.30;;;;;;4466918;59;21052;-29
2022/09/27 00:47:20;;;;;;;25.62;22.52;;;21.40;63.30;;;;;;4439944;63;21092;-30
2022/09/27 00:55:06;;;;;;;26.05;23.33;;;21.40;63.20;;;;;;4446610;59;21089;-28
2022/09/27 01:00:10;;;;;;;25.33;22.55;;;21.40;63.30;;;;;;4441338;59;21076;-32
2022/09/27 01:05:13;;;;;;;26.08;23.30;;;21.40;63.20;;;;;;4450375;59;21041;-28
2022/09/27 01:10:17;;;;;;;25.05;22.42;;;21.40;63.20;;;;;;4446627;59;21123;-32
2022/09/27 01:15:55;;;;;;;24.83;22.20;;;21.40;63.30;;;;;;4458335;59;21048;-27
2022/09/27 01:28:01;;;;;;;24.15;21.60;;;21.40;63.20;;;;;;4457671;59;21534;-28
2022/09/27 01:34:02;;;;;;;25.05;22.30;;;21.40;63.20;;;;;;4452617;59;21068;-28
2022/09/27 01:39:31;;;;;;;25.48;22.80;;;21.40;63.20;;;;;;4459985;59;21140;-34
2022/09/27 01:44:43;;;;;;;24.48;21.87;;;21.40;63.20;;;;;;4445665;59;21100;-35
2022/09/27 01:50:02;;;;;;;24.48;21.87;;;21.40;63.20;;;;;;4455475;59;21137;-33
2022/09/27 01:55:08;;;;;;;23.95;21.52;;;21.40;63.20;;;;;;4446038;59;21036;-29
2022/09/27 02:00:11;;;;;;;24.70;21.83;;;21.40;63.20;;;;;;4454707;59;21056;-33
2022/09/27 02:05:16;;;;;;;26.17;23.38;;;21.40;63.30;;;;;;4454702;59;21566;-28
2022/09/27 02:10:23;;;;;;;25.20;22.50;;;21.40;63.20;;;;;;4503451;59;21510;-30
2022/09/27 02:15:26;;;;;;;24.33;21.73;;;21.40;63.20;;;;;;4459798;59;21036;-30
2022/09/27 02:20:36;;;;;;;24.90;22.27;;;21.40;63.20;;;;;;4449974;59;21566;-32
2022/09/27 02:25:57;;;;;;;24.65;21.92;;;21.40;63.20;;;;;;4439953;60;21203;-27
2022/09/27 02:30:58;;;;;;;22.92;20.50;;;21.40;63.20;;;;;;4496469;59;21044;-31
2022/09/27 02:36:00;;;;;;;23.83;21.30;;;21.40;62.70;;;;;;4452769;58;21502;-29
2022/09/27 02:41:00;;;;;;;24.05;21.50;;;21.40;63.20;;;;;;4449584;59;21084;-32
2022/09/27 02:46:43;;;;;;;28.83;22.00;;;21.40;63.20;;;;;;4446606;58;21084;-32
2022/09/27 02:52:02;;;;;;;24.27;21.70;;;21.40;63.10;;;;;;4444377;59;21530;-30
2022/09/27 02:57:31;;;;;;;23.25;20.85;;;21.40;63.10;;;;;;4449280;59;21048;-32
2022/09/27 03:05:33;;;;;;;21.77;19.48;;;21.40;63.10;;;;;;4448675;59;21059;-32
2022/09/27 03:10:35;;;;;;;22.77;20.37;;;21.40;63.10;;;;;;4451293;59;21136;-30
2022/09/27 03:15:36;;;;;;;22.62;20.23;;;21.40;63.10;;;;;;4447001;59;21084;-35
2022/09/27 03:20:37;;;;;;;23.33;20.88;;;21.40;63.10;;;;;;4445933;58;21061;-31
2022/09/27 03:25:40;;;;;;;22.98;20.58;;;21.40;63.10;;;;;;4440031;62;21048;-30
2022/09/27 03:30:41;;;;;;;23.20;20.77;;;21.40;63.10;;;;;;4447591;59;21619;-29
2022/09/27 03:35:42;;;;;;;23.10;20.70;;;21.40;63.10;;;;;;4450668;58;21032;-32
2022/09/27 03:40:43;;;;;;;23.73;21.23;;;21.40;63.20;;;;;;4447703;59;21115;-29
2022/09/27 03:45:44;;;;;;;23.40;20.20;;;21.40;63.00;;;;;;4458147;59;21048;-26
2022/09/27 03:50:45;;;;;;;22.33;19.95;;;21.40;63.10;;;;;;4473450;58;21578;-29
2022/09/27 03:55:46;;;;;;;23.08;20.67;;;21.40;63.10;;;;;;4463144;58;21084;-32
2022/09/27 04:00:47;;;;;;;22.95;20.30;;;21.40;63.20;;;;;;4502208;59;21491;-30
2022/09/27 04:05:48;;;;;;;23.05;20.62;;;21.40;63.20;;;;;;4452754;59;21064;-33
2022/09/27 04:10:49;;;;;;;22.45;20.15;;;21.40;63.20;;;;;;4465358;58;21060;-30
2022/09/27 04:15:50;;;;;;;23.25;20.77;;;21.40;63.20;;;;;;4443680;58;21572;-30
2022/09/27 04:20:51;;;;;;;22.05;19.75;;;21.40;64.00;;;;;;4463116;59;21101;-34
2022/09/27 04:25:52;;;;;;;22.33;19.92;;;21.40;63.30;;;;;;4440153;59;21044;-26
2022/09/27 04:30:53;;;;;;;22.05;19.75;;;21.40;63.20;;;;;;4447709;59;21052;-33
2022/09/27 04:41:14;;;;;;;22.45;20.05;;;21.40;63.30;;;;;;4439598;63;21554;-34
2022/09/27 04:46:15;;;;;;;21.20;18.75;;;21.40;63.30;;;;;;4456958;58;21633;-29
2022/09/27 04:51:16;;;;;;;22.55;20.05;;;21.40;63.30;;;;;;4459968;58;21164;-30
2022/09/27 04:56:18;;;;;;;22.27;19.87;;;21.30;63.30;;;;;;4448583;59;21064;-29
2022/09/27 05:01:18;;;;;;;22.87;20.48;;;21.40;63.30;;;;;;4449263;58;21529;-32
2022/09/27 05:06:19;;;;;;;21.95;19.62;;;21.40;63.30;;;;;;4439959;62;21117;-32
2022/09/27 05:11:23;;;;;;;21.67;19.37;;;21.30;63.20;;;;;;4441486;58;21162;-32
2022/09/27 05:16:25;;;;;;;21.75;19.50;;;21.40;63.30;;;;;;4440336;59;21111;-30
2022/09/27 05:21:26;;;;;;;22.02;19.62;;;21.40;63.30;;;;;;4440333;59;21538;-34
2022/09/27 05:26:27;;;;;;;23.92;19.85;;;21.40;63.30;;;;;;4439805;62;21059;-33
2022/09/27 05:31:28;;;;;;;22.17;19.73;;;21.40;63.30;;;;;;4441167;58;21068;-35
2022/09/27 05:36:29;;;;;;;22.87;20.30;;;21.40;63.30;;;;;;4439780;59;21164;-34
2022/09/27 05:41:31;;;;;;;22.35;19.40;;;21.40;63.20;;;;;;4439915;58;21658;-35
2022/09/27 05:46:32;;;;;;;23.70;20.50;;;21.40;63.20;;;;;;4439661;62;21563;-34
2022/09/27 05:51:33;;;;;;;21.62;19.33;;;21.40;63.30;;;;;;4444853;58;21053;-31
2022/09/27 05:56:34;;;;;;;22.25;19.73;;;21.40;63.20;;;;;;4442071;59;21109;-35
2022/09/27 06:01:35;;;;;;;22.05;19.67;;;21.40;63.20;;;;;;4440442;62;21121;-34
2022/09/27 06:06:36;;;;;;;23.77;20.67;;;21.40;63.20;;;;;;4439758;63;21144;-30
2022/09/27 06:11:37;;;;;;;21.92;19.58;;;21.40;63.20;;;;;;4442199;59;21044;-34
2022/09/27 06:16:38;;;;;;;22.08;19.67;;;21.40;63.10;;;;;;4457485;58;21040;-36
2022/09/27 06:21:39;;;;;;;21.77;19.00;;;21.40;63.20;;;;;;4442091;58;21082;-35
2022/09/27 06:26:39;;;;;;;21.67;19.15;;;21.40;63.10;;;;;;4442296;58;21088;-31
2022/09/27 06:31:40;;;;;;;22.90;20.35;;;21.40;63.20;;;;;;4454384;58;21044;-36
2022/09/27 06:36:42;;;;;;;25.55;22.37;;;21.40;63.10;;;;;;4440557;63;21594;-33
2022/09/27 06:41:43;;;;;;;42.40;33.03;;;21.40;63.40;;;;;;4440336;62;21639;-31
2022/09/27 06:46:44;;;;;;;52.58;40.92;;;21.40;64.80;;;;;;4469755;58;21080;-31
2022/09/27 06:51:45;;;;;;;58.08;45.10;;;21.40;65.20;;;;;;4440105;58;21585;-33
2022/09/27 06:56:47;;;;;;;74.32;51.10;;;21.50;65.80;;;;;;4441008;59;21051;-30
2022/09/27 07:01:51;;;;;;;70.55;51.53;;;21.50;66.30;;;;;;4447165;59;21092;-32
2022/09/27 07:06:52;;;;;;;74.45;57.95;;;21.50;66.30;;;;;;4439752;62;21548;-27
2022/09/27 07:11:54;;;;;;;80.78;58.08;;;21.60;67.00;;;;;;4439957;62;21100;-28
2022/09/27 07:16:55;;;;;;;84.10;59.58;;;21.60;66.60;;;;;;4452264;58;21638;-31
2022/09/27 07:21:56;;;;;;;84.55;60.30;;;21.60;66.60;;;;;;4461861;59;21049;-28
2022/09/27 07:26:59;;;;;;;99.07;68.07;;;21.70;66.80;;;;;;4439820;62;21048;-27
2022/09/27 07:32:01;;;;;;;115.53;76.72;;;21.70;66.80;;;;;;4479661;58;21116;-34
2022/09/27 07:37:04;;;;;;;121.22;78.05;;;21.70;67.00;;;;;;4457164;59;21025;-38
2022/09/27 07:42:05;;;;;;;148.13;90.72;;;21.70;66.90;;;;;;4443666;59;22642;-32
2022/09/27 07:47:07;;;;;;;152.77;94.20;;;21.70;66.90;;;;;;4441229;59;21160;-27
2022/09/27 07:52:08;;;;;;;167.75;104.05;;;21.80;67.00;;;;;;4449746;59;21040;-37
2022/09/27 07:57:10;;;;;;;162.23;102.32;;;21.70;67.00;;;;;;4439924;59;21100;-33
2022/09/27 08:02:16;;;;;;;166.98;105.03;;;21.80;67.10;;;;;;4440406;63;21510;-32
2022/09/27 08:07:17;;;;;;;149.65;95.38;;;21.80;67.10;;;;;;4439999;63;21136;-31
2022/09/27 08:12:20;;;;;;;155.35;98.72;;;21.80;67.30;;;;;;4465848;59;21104;-29
2022/09/27 08:17:21;;;;;;;149.87;96.25;;;21.70;67.20;;;;;;4440386;62;21554;-30
2022/09/27 08:22:22;;;;;;;138.88;90.95;;;21.80;67.30;;;;;;4450763;58;21128;-32
2022/09/27 08:27:23;;;;;;;133.27;82.22;;;21.80;67.60;;;;;;4453064;59;21048;-30
2022/09/27 08:32:24;;;;;;;126.53;83.00;;;21.90;67.50;;;;;;4443052;58;21116;-30
2022/09/27 08:37:25;;;;;;;111.40;74.70;;;21.90;67.50;;;;;;4442984;58;21145;-28
2022/09/27 08:42:50;;;;;;;113.75;73.90;;;21.90;67.40;;;;;;4457613;58;21549;-30
2022/09/27 08:47:59;;;;;;;111.28;73.80;;;21.90;67.40;;;;;;4440570;63;21116;-33
2022/09/27 08:55:40;;;;;;;104.20;71.65;;;21.90;67.40;;;;;;4439612;63;21589;-29
2022/09/27 09:00:42;;;;;;;102.80;70.28;;;21.90;67.40;;;;;;4462337;59;21207;-29
2022/09/27 09:09:17;;;;;;;110.10;74.87;;;21.90;67.30;;;;;;4440664;59;21087;-32
2022/09/27 09:15:16;;;;;;;106.93;72.10;;;22.00;67.30;;;;;;4448009;59;21060;-31
2022/09/27 09:20:52;;;;;;;102.43;70.03;;;22.00;67.50;;;;;;4441898;59;21016;-32
2022/09/27 09:26:19;;;;;;;102.13;69.70;;;22.00;67.30;;;;;;4449415;59;21588;-34
2022/09/27 09:31:42;;;;;;;94.07;64.28;;;22.00;67.20;;;;;;4441877;59;21104;-34
2022/09/27 09:38:22;;;;;;;102.12;67.95;;;22.00;67.50;;;;;;4440093;63;21056;-28
2022/09/27 09:43:33;;;;;;;97.32;67.50;;;22.00;67.10;;;;;;4450562;59;21155;-31
2022/09/27 09:48:54;;;;;;;91.50;64.97;;;22.00;67.30;;;;;;4457003;59;21147;-34
2022/09/27 09:54:07;;;;;;;97.72;66.25;;;22.00;67.30;;;;;;4446009;59;21538;-30
2022/09/27 09:59:28;;;;;;;100.95;69.22;;;22.00;67.60;;;;;;4453378;59;21032;-34
2022/09/27 10:04:32;;;;;;;94.07;67.43;;;22.10;67.70;;;;;;4440279;61;21103;-34
2022/09/27 10:09:33;;;;;;;89.40;62.55;;;22.10;67.80;;;;;;4443192;58;21750;-33
2022/09/27 10:14:34;;;;;;;87.93;64.43;;;22.10;67.90;;;;;;4448627;58;21595;-29
2022/09/27 10:19:38;;;;;;;89.70;65.15;;;22.20;68.00;;;;;;4468774;58;21052;-30
2022/09/27 10:24:57;;;;;;;88.75;62.60;;;22.20;68.20;;;;;;4456630;59;21546;-29
2022/09/27 10:29:59;;;;;;;90.55;64.10;;;22.20;68.10;;;;;;4451867;59;21068;-29
2022/09/27 10:35:34;;;;;;;86.50;62.75;;;22.20;68.10;;;;;;4439802;63;21049;-31
2022/09/27 10:40:34;;;;;;;86.05;62.10;;;22.20;68.10;;;;;;4478645;59;21821;-28
2022/09/27 10:45:39;;;;;;;89.78;67.93;;;22.20;68.10;;;;;;4474779;58;21064;-29
2022/09/27 10:51:02;;;;;;;87.37;65.22;;;22.20;68.10;;;;;;4452894;59;22539;-32
2022/09/27 10:56:02;;;;;;;95.78;71.05;;;22.20;68.10;;;;;;4447269;59;21525;-27
2022/09/27 11:01:08;;;;;;;90.75;71.32;;;22.20;68.20;;;;;;4513177;58;21044;-28
2022/09/27 11:06:27;;;;;;;95.65;70.15;;;22.20;68.20;;;;;;4441596;59;21048;-31
2022/09/27 11:11:28;;;;;;;96.90;71.18;;;22.20;68.20;;;;;;4483171;59;21578;-29
2022/09/27 11:22:00;;;;;;;96.30;73.50;;;22.20;68.30;;;;;;4460535;58;21522;-35
2022/09/27 11:28:09;;;;;;;98.10;74.12;;;22.20;68.20;;;;;;4448595;59;21530;-34
2022/09/27 11:38:10;;;;;;;99.18;76.40;;;22.20;68.10;;;;;;4457954;59;21043;-35
2022/09/27 11:46:17;;;;;;;93.68;73.50;;;22.20;68.00;;;;;;4440864;63;21164;-34
2022/09/27 11:51:36;;;;;;;96.85;73.07;;;22.20;67.90;;;;;;4461389;59;21028;-32
2022/09/27 11:57:04;;;;;;;96.95;74.18;;;22.20;67.90;;;;;;4461900;59;21168;-31
2022/09/27 12:02:35;;;;;;;90.80;71.95;;;22.20;67.90;;;;;;4440577;59;21052;-29
2022/09/27 12:08:01;;;;;;;91.72;69.07;;;22.20;67.90;;;;;;4438329;59;21088;-29
2022/09/27 12:13:03;;;;;;;97.60;70.57;;;22.20;68.00;;;;;;4452499;59;21120;-32
2022/09/27 12:18:26;;;;;;;87.72;66.78;;;22.30;68.30;;;;;;4440399;63;21112;-34
2022/09/27 12:24:19;;;;;;;89.53;65.40;;;22.30;68.50;;;;;;4450868;59;21024;-28
2022/09/27 12:29:32;;;;;;;84.82;65.22;;;22.30;68.60;;;;;;4454892;59;21498;-28
2022/09/27 12:34:59;;;;;;;83.57;64.47;;;22.30;68.60;;;;;;4447528;59;22074;-28
2022/09/27 12:40:14;;;;;;;78.23;60.53;;;22.40;68.90;;;;;;4439746;59;21120;-28
2022/09/27 12:45:20;;;;;;;80.72;61.17;;;22.40;68.80;;;;;;4440381;63;21046;-29
2022/09/27 12:51:13;;;;;;;76.32;60.17;;;22.40;68.80;;;;;;4459878;59;21137;-33
2022/09/27 13:00:01;;;;;;;75.15;60.05;;;22.30;68.70;;;;;;4445663;59;21072;-35
2022/09/27 13:06:25;;;;;;;74.03;58.67;;;22.40;68.70;;;;;;4458465;59;21125;-33
2022/09/27 13:12:30;;;;;;;73.07;58.33;;;22.40;68.70;;;;;;4446324;59;21036;-28
2022/09/27 13:19:36;;;;;;;76.10;58.60;;;22.30;68.60;;;;;;4476613;59;21148;-32
2022/09/27 13:24:47;;;;;;;83.53;62.33;;;22.30;69.20;;;;;;4459611;59;22136;-31
2022/09/27 13:29:49;;;;;;;95.93;69.97;;;22.40;68.60;;;;;;4439130;63;21112;-30
2022/09/27 13:34:53;;;;;;;88.45;70.32;;;22.30;68.50;;;;;;4440154;63;21334;-29
2022/09/27 13:40:29;;;;;;;93.90;71.05;;;22.40;68.50;;;;;;4496899;59;21586;-34
2022/09/27 13:45:56;;;;;;;97.43;75.37;;;22.30;68.50;;;;;;4458947;59;21036;-31
2022/09/27 13:51:10;;;;;;;99.15;73.68;;;22.30;68.40;;;;;;4444435;59;21023;-29
2022/09/27 13:56:52;;;;;;;100.75;76.12;;;22.40;68.50;;;;;;4465016;59;21159;-28
2022/09/27 14:03:31;;;;;;;98.07;75.40;;;22.30;68.40;;;;;;4473835;59;21715;-32
2022/09/27 14:12:11;;;;;;;99.20;74.22;;;22.30;68.10;;;;;;4444996;59;21155;-30
2022/09/27 14:17:13;;;;;;;94.25;69.32;;;22.30;67.90;;;;;;4447572;59;21060;-26
2022/09/27 14:22:16;;;;;;;97.15;70.22;;;22.30;67.70;;;;;;4464393;59;21060;-34
2022/09/27 14:27:24;;;;;;;95.45;70.40;;;22.20;67.60;;;;;;4440033;59;21064;-29
2022/09/27 14:32:25;;;;;;;;;;;22.20;67.70;;;;;;4445222;59;21110;-31
2022/09/27 14:37:28;;;;;;;86.45;66.50;;;22.20;67.70;;;;;;4448296;58;20133;-29
2022/09/27 14:42:35;;;;;;;89.22;67.37;;;22.20;67.80;;;;;;4440781;59;21610;-36
2022/09/27 14:47:44;;;;;;;88.32;66.65;;;22.10;67.80;;;;;;4450235;58;21710;-32
2022/09/27 14:52:47;;;;;;;89.32;67.22;;;22.10;67.80;;;;;;4453825;59;21125;-32
2022/09/27 14:58:01;;;;;;;85.45;66.12;;;22.10;67.80;;;;;;4462788;58;21593;-27
2022/09/27 15:03:07;;;;;;;86.45;65.72;;;22.00;67.80;;;;;;4439814;63;21605;-36
2022/09/27 15:08:11;;;;;;;81.55;61.83;;;22.00;67.80;;;;;;4441795;59;21063;-38
2022/09/27 15:13:18;;;;;;;82.37;62.83;;;22.00;67.80;;;;;;4474461;59;21522;-30
2022/09/27 15:18:40;;;;;;;81.67;60.80;;;22.00;67.80;;;;;;4470945;59;21032;-36
2022/09/27 15:23:43;;;;;;;79.03;60.42;;;22.00;67.80;;;;;;4444467;59;21084;-30
2022/09/27 15:28:47;;;;;;;79.87;59.53;;;21.90;67.70;;;;;;4439336;63;21586;-34
2022/09/27 15:33:54;;;;;;;78.72;61.10;;;21.90;67.70;;;;;;4453232;59;21140;-32
2022/09/27 15:39:08;;;;;;;77.97;59.22;;;21.90;67.70;;;;;;4464252;59;21056;-36
2022/09/27 15:44:56;;;;;;;74.03;58.05;;;21.90;67.70;;;;;;4459308;59;22117;-29
2022/09/27 15:49:58;;;;;;;74.80;58.90;;;21.90;67.60;;;;;;4464876;59;21574;-36
2022/09/27 15:55:02;;;;;;;74.82;58.58;;;21.90;67.60;;;;;;4449010;59;21056;-27
2022/09/27 16:00:03;;;;;;;71.53;57.65;;;21.90;67.60;;;;;;4445810;58;21617;-36
2022/09/27 16:05:05;;;;;;;72.43;56.28;;;21.90;67.60;;;;;;4466586;59;21041;-33
2022/09/27 16:10:15;;;;;;;76.40;59.67;;;21.90;67.50;;;;;;4439024;59;21537;-35
2022/09/27 16:15:16;;;;;;;71.57;55.92;;;21.90;67.50;;;;;;4453167;59;21092;-38
2022/09/27 16:20:23;;;;;;;71.82;55.28;;;21.90;67.50;;;;;;4447204;58;21633;-35
2022/09/27 16:25:24;;;;;;;70.80;54.40;;;21.80;67.40;;;;;;4440138;63;21549;-35
2022/09/27 16:30:26;;;;;;;69.22;54.30;;;21.90;67.50;;;;;;4459381;59;21088;-36
2022/09/27 16:35:27;;;;;;;66.22;53.55;;;21.80;67.40;;;;;;4453124;59;21166;-36
2022/09/27 16:40:29;;;;;;;69.28;55.75;;;21.80;67.40;;;;;;4440291;58;21503;-37
2022/09/27 16:45:32;;;;;;;73.20;55.90;;;21.80;67.30;;;;;;4476511;59;21513;-38
2022/09/27 16:55:52;;;;;;;70.03;54.38;;;21.80;67.30;;;;;;4444941;59;21065;-35
2022/09/27 17:00:57;;;;;;;64.00;51.70;;;21.80;67.20;;;;;;4459391;58;21032;-27
2022/09/27 17:06:02;;;;;;;66.35;52.50;;;21.80;67.20;;;;;;4463956;59;21576;-30
2022/09/27 17:11:05;;;;;;;67.70;53.53;;;21.80;67.20;;;;;;4442336;58;21526;-36
2022/09/27 17:16:06;;;;;;;62.40;50.15;;;21.80;67.20;;;;;;4440391;58;21051;-33
2022/09/27 17:21:07;;;;;;;65.43;53.05;;;21.80;67.20;;;;;;4447633;58;21514;-35
2022/09/27 17:26:19;;;;;;;66.10;52.15;;;21.80;67.10;;;;;;4440381;58;21932;-36
2022/09/27 17:31:20;;;;;;;67.30;53.83;;;21.80;67.10;;;;;;4439935;59;21086;-37
2022/09/27 17:36:24;;;;;;;64.40;52.65;;;21.80;67.10;;;;;;4440143;62;21052;-30
2022/09/27 17:41:26;;;;;;;65.28;52.40;;;21.80;67.00;;;;;;4472744;59;21097;-34
2022/09/27 17:46:32;;;;;;;62.35;50.38;;;21.80;67.00;;;;;;4448927;59;21084;-29
2022/09/27 17:51:36;;;;;;;63.37;50.83;;;21.80;67.00;;;;;;4453054;59;21109;-33
2022/09/27 17:56:38;;;;;;;65.37;51.22;;;21.80;67.00;;;;;;4452338;59;21056;-28
2022/09/27 18:01:39;;;;;;;68.85;52.35;;;21.80;67.00;;;;;;4442872;59;21103;-30
2022/09/27 18:06:42;;;;;;;64.05;52.38;;;21.80;67.00;;;;;;4440409;62;21526;-38
2022/09/27 18:11:44;;;;;;;62.95;50.75;;;21.80;66.90;;;;;;4440694;63;22370;-31
2022/09/27 18:16:45;;;;;;;61.95;50.12;;;21.70;66.90;;;;;;4440980;59;21743;-31
2022/09/27 18:21:46;;;;;;;57.72;48.25;;;21.80;66.90;;;;;;4472608;59;21063;-37
2022/09/27 18:26:47;;;;;;;62.95;50.88;;;21.70;66.80;;;;;;4440479;58;21072;-35
2022/09/27 18:31:48;;;;;;;62.05;49.80;;;21.70;66.80;;;;;;4440434;58;21076;-33
2022/09/27 18:36:50;;;;;;;59.75;48.95;;;21.80;66.90;;;;;;4454878;58;21475;-27
2022/09/27 18:41:52;;;;;;;61.70;51.13;;;21.80;66.90;;;;;;4446408;59;21068;-27
2022/09/27 18:46:53;;;;;;;58.87;48.05;;;21.70;66.80;;;;;;4439975;62;22260;-28
2022/09/27 18:51:54;;;;;;;60.85;49.78;;;21.70;66.70;;;;;;4441799;59;21084;-33
2022/09/27 18:56:54;;;;;;;57.75;47.13;;;21.70;66.70;;;;;;4439647;62;21108;-26
2022/09/27 19:01:56;;;;;;;60.03;50.08;;;21.70;66.70;;;;;;4441501;59;21594;-30
2022/09/27 19:06:56;;;;;;;57.22;48.00;;;21.70;66.70;;;;;;4447945;59;21159;-26
2022/09/27 19:11:57;;;;;;;59.40;48.20;;;21.70;66.70;;;;;;4455394;58;21180;-30
2022/09/27 19:16:58;;;;;;;60.00;49.60;;;21.70;66.70;;;;;;4477138;58;21057;-28
2022/09/27 19:21:59;;;;;;;60.67;49.78;;;21.70;66.60;;;;;;4441910;58;21116;-30
2022/09/27 19:26:59;;;;;;;57.58;48.53;;;21.70;66.60;;;;;;4466145;58;21147;-35
2022/09/27 19:32:01;;;;;;;60.22;49.22;;;21.70;66.60;;;;;;4471561;58;21060;-29
2022/09/27 19:37:02;;;;;;;54.47;46.22;;;21.70;66.60;;;;;;4484941;58;21529;-34
2022/09/27 19:42:03;;;;;;;55.30;46.30;;;21.70;66.60;;;;;;4447993;58;21049;-29
2022/09/27 19:47:03;;;;;;;58.70;47.53;;;21.70;66.50;;;;;;4441539;59;21065;-29
2022/09/27 19:52:04;;;;;;;57.55;47.08;;;21.70;66.50;;;;;;4449441;58;21078;-34
2022/09/27 19:57:05;;;;;;;57.58;47.67;;;21.70;66.50;;;;;;4440191;59;21056;-32
2022/09/27 20:02:06;;;;;;;58.33;47.62;;;21.70;66.40;;;;;;4440453;62;21119;-29
2022/09/27 20:07:07;;;;;;;56.37;48.15;;;21.70;66.40;;;;;;4462019;58;21060;-27
2022/09/27 20:12:08;;;;;;;55.47;46.60;;;21.70;66.50;;;;;;4449447;59;21108;-28
2022/09/27 20:17:09;;;;;;;57.50;47.45;;;21.70;66.40;;;;;;4458870;59;21517;-29
2022/09/27 20:22:10;;;;;;;54.47;45.83;;;21.70;66.40;;;;;;4457074;59;21116;-29
2022/09/27 20:27:10;;;;;;;54.95;46.42;;;21.70;66.30;;;;;;4461926;59;21064;-27
2022/09/27 20:32:11;;;;;;;56.08;45.63;;;21.70;66.30;;;;;;4460806;58;21129;-27
2022/09/27 20:37:12;;;;;;;53.92;45.38;;;21.70;66.30;;;;;;4461190;58;21108;-27
2022/09/27 20:42:15;;;;;;;53.72;45.03;;;21.70;66.30;;;;;;4441761;58;21076;-28
2022/09/27 20:47:16;;;;;;;54.58;45.58;;;21.70;66.30;;;;;;4450601;59;21073;-37
2022/09/27 20:52:18;;;;;;;54.75;45.75;;;21.70;66.20;;;;;;4440210;62;21080;-26
2022/09/27 20:57:24;;;;;;;55.38;44.47;;;21.70;66.30;;;;;;4447177;58;21589;-31
2022/09/27 21:02:24;;;;;;;54.42;44.97;;;21.70;66.20;;;;;;4451418;58;21514;-32
2022/09/27 21:07:26;;;;;;;54.05;45.40;;;21.70;66.20;;;;;;4469594;58;21108;-28
2022/09/27 21:12:28;;;;;;;53.28;44.58;;;21.70;66.10;;;;;;4480062;58;21529;-32
2022/09/27 21:17:29;;;;;;;54.22;43.87;;;21.70;66.30;;;;;;4447951;58;21522;-27
2022/09/27 21:22:33;;;;;;;52.85;43.58;;;21.70;66.20;;;;;;4449140;58;21092;-35
2022/09/27 21:27:35;;;;;;;51.58;43.38;;;21.70;66.10;;;;;;4444723;59;21617;-26
2022/09/27 21:32:37;;;;;;;50.78;43.50;;;21.70;66.70;;;;;;4487243;59;21071;-33
2022/09/27 21:37:37;;;;;;;54.72;44.10;;;21.70;66.00;;;;;;4442223;59;21128;-31
2022/09/27 21:42:38;;;;;;;49.72;42.80;;;21.70;66.00;;;;;;4443420;58;21537;-33
2022/09/27 21:47:39;;;;;;;52.70;44.65;;;21.70;66.00;;;;;;4448142;58;21148;-34
2022/09/27 21:52:40;;;;;;;54.53;44.30;;;21.70;66.10;;;;;;4439839;59;21064;-32
2022/09/27 21:57:41;;;;;;;50.92;43.45;;;21.70;66.00;;;;;;4456345;58;21093;-35
2022/09/27 22:02:42;;;;;;;51.47;43.90;;;21.70;65.90;;;;;;4457190;58;21089;-34
2022/09/27 22:07:43;;;;;;;49.38;41.63;;;21.70;65.90;;;;;;4439592;62;21518;-31
2022/09/27 22:12:43;;;;;;;50.63;41.08;;;21.70;66.00;;;;;;4445108;58;21092;-34
2022/09/27 22:17:44;;;;;;;48.30;41.13;;;21.70;65.90;;;;;;4440109;63;21068;-36
2022/09/27 22:22:45;;;;;;;50.35;39.42;;;21.60;65.70;;;;;;4447547;58;21100;-26
2022/09/27 22:27:47;;;;;;;51.13;42.42;;;21.70;65.80;;;;;;4446435;59;21569;-26
2022/09/27 22:32:48;;;;;;;47.92;41.15;;;21.70;65.90;;;;;;4472152;58;21590;-33
2022/09/27 22:37:49;;;;;;;51.45;40.75;;;21.70;65.80;;;;;;4439860;63;21044;-35
2022/09/27 22:42:50;;;;;;;46.17;38.90;;;21.70;65.90;;;;;;4440880;58;21052;-35
2022/09/27 22:47:51;;;;;;;47.55;40.45;;;21.60;66.40;;;;;;4470669;58;22317;-31
2022/09/27 22:52:51;;;;;;;48.97;40.45;;;21.60;66.20;;;;;;4442688;58;21060;-29
2022/09/27 22:57:52;;;;;;;47.88;39.80;;;21.60;65.80;;;;;;4445710;58;21053;-34
2022/09/27 23:02:54;;;;;;;46.53;40.25;;;21.60;65.70;;;;;;4449428;58;21056;-36
2022/09/27 23:07:55;;;;;;;46.80;39.33;;;21.60;65.70;;;;;;4439788;59;21072;-30
2022/09/27 23:12:57;;;;;;;44.83;37.53;;;21.70;65.70;;;;;;4457611;59;21056;-36
2022/09/27 23:17:58;;;;;;;43.85;38.85;;;21.60;65.70;;;;;;4448795;58;21533;-35
2022/09/27 23:22:59;;;;;;;46.35;39.28;;;21.60;65.60;;;;;;4459687;59;21554;-31
2022/09/27 23:28:00;;;;;;;45.83;38.13;;;21.60;65.60;;;;;;4468847;58;21048;-35
2022/09/27 23:33:01;;;;;;;43.30;38.13;;;21.60;65.60;;;;;;4462362;58;21551;-34
2022/09/27 23:38:02;;;;;;;43.87;37.83;;;21.60;65.70;;;;;;4451743;58;21050;-37
2022/09/27 23:43:03;;;;;;;44.78;37.85;;;21.60;65.60;;;;;;4456857;58;21044;-36
2022/09/27 23:48:04;;;;;;;42.95;36.95;;;21.60;65.60;;;;;;4470437;58;21510;-36
2022/09/27 23:53:05;;;;;;;46.45;36.90;;;21.60;65.60;;;;;;4445148;58;21124;-33
2022/09/27 23:58:06;;;;;;;45.45;37.63;;;21.60;65.50;;;;;;4487154;58;21139;-34
